sensor_id;sensor_type;location;lat;lon;timestamp;pressure;altitude;pressure_sealevel;temperature;humidity
69060;BME280;56135;37.534;-122.308;2022-12-20T00:00:26;102401.06;;;8.14;100.00
69060;BME280;56135;37.534;-122.308;2022-12-20T00:02:52;102394.03;;;8.15;100.00
69060;BME280;56135;37.534;-122.308;2022-12-20T00:05:18;102385.91;;;8.04;100.00
69060;BME280;56135;37.534;-122.308;2022-12-20T00:07:44;102382.44;;;8.07;100.00
69060;BME280;56135;37.534;-122.308;2022-12-20T00:10:10;102390.72;;;7.85;100.00
69060;BME280;56135;37.534;-122.308;2022-12-20T00:12:36;102389.06;;;7.89;100.00
69060;BME280;56135;37.534;-122.308;2022-12-20T00:15:02;102383.81;;;7.91;100.00
69060;BME280;56135;37.534;-122.308;2022-12-20T00:17:28;102387.38;;;7.93;100.00
69060;BME280;56135;37.534;-122.308;2022-12-20T00:19:53;102384.63;;;7.88;100.00
69060;BME280;56135;37.534;-122.308;2022-12-20T00:22:19;102392.28;;;7.77;100.00
69060;BME280;56135;37.534;-122.308;2022-12-20T00:24:45;102384.41;;;7.79;100.00
69060;BME280;56135;37.534;-122.308;2022-12-20T00:27:11;102385.38;;;7.82;100.00
69060;BME280;56135;37.534;-122.308;2022-12-20T00:29:37;102380.88;;;7.78;100.00
69060;BME280;56135;37.534;-122.308;2022-12-20T00:32:02;102379.81;;;7.72;100.00
69060;BME280;56135;37.534;-122.308;2022-12-20T00:34:28;102392.75;;;7.62;100.00
69060;BME280;56135;37.534;-122.308;2022-12-20T00:36:54;102381.22;;;7.57;100.00
69060;BME280;56135;37.534;-122.308;2022-12-20T00:39:20;102381.34;;;7.62;100.00
69060;BME280;56135;37.534;-122.308;2022-12-20T00:41:46;102374.31;;;7.61;100.00
69060;BME280;56135;37.534;-122.308;2022-12-20T00:44:11;102385.63;;;7.58;100.00
69060;BME280;56135;37.534;-122.308;2022-12-20T00:46:37;102393.16;;;7.44;100.00
69060;BME280;56135;37.534;-122.308;2022-12-20T00:49:03;102392.09;;;7.36;100.00
69060;BME280;56135;37.534;-122.308;2022-12-20T00:51:29;102400.53;;;7.24;100.00
69060;BME280;56135;37.534;-122.308;2022-12-20T00:53:56;102415.28;;;7.19;100.00
69060;BME280;56135;37.534;-122.308;2022-12-20T00:56:22;102410.94;;;7.21;100.00
69060;BME280;56135;37.534;-122.308;2022-12-20T00:58:48;102406.63;;;7.23;100.00
69060;BME280;56135;37.534;-122.308;2022-12-20T01:01:18;102416.16;;;7.20;100.00
69060;BME280;56135;37.534;-122.308;2022-12-20T01:03:46;102422.16;;;7.15;100.00
69060;BME280;56135;37.534;-122.308;2022-12-20T01:06:12;102424.81;;;7.15;100.00
69060;BME280;56135;37.534;-122.308;2022-12-20T01:08:38;102426.22;;;7.04;100.00
69060;BME280;56135;37.534;-122.308;2022-12-20T01:11:11;102433.22;;;7.04;100.00
69060;BME280;56135;37.534;-122.308;2022-12-20T01:13:39;102434.06;;;7.03;100.00
69060;BME280;56135;37.534;-122.308;2022-12-20T01:16:16;102426.03;;;6.96;100.00
69060;BME280;56135;37.534;-122.308;2022-12-20T01:18:42;102422.25;;;6.88;100.00
69060;BME280;56135;37.534;-122.308;2022-12-20T01:21:09;102422.09;;;6.82;100.00
69060;BME280;56135;37.534;-122.308;2022-12-20T01:23:36;102427.16;;;6.76;100.00
69060;BME280;56135;37.534;-122.308;2022-12-20T01:26:03;102428.84;;;6.74;100.00
69060;BME280;56135;37.534;-122.308;2022-12-20T01:28:30;102436.50;;;6.66;100.00
69060;BME280;56135;37.534;-122.308;2022-12-20T01:30:56;102432.06;;;6.63;100.00
69060;BME280;56135;37.534;-122.308;2022-12-20T01:33:22;102426.59;;;6.57;100.00
69060;BME280;56135;37.534;-122.308;2022-12-20T01:35:55;102423.06;;;6.55;100.00
69060;BME280;56135;37.534;-122.308;2022-12-20T01:38:22;102422.84;;;6.49;100.00
69060;BME280;56135;37.534;-122.308;2022-12-20T01:40:48;102428.91;;;6.46;100.00
69060;BME280;56135;37.534;-122.308;2022-12-20T01:43:14;102425.19;;;6.40;100.00
69060;BME280;56135;37.534;-122.308;2022-12-20T01:45:42;102421.63;;;6.38;100.00
69060;BME280;56135;37.534;-122.308;2022-12-20T01:48:08;102427.81;;;6.40;100.00
69060;BME280;56135;37.534;-122.308;2022-12-20T01:50:34;102430.44;;;6.40;100.00
69060;BME280;56135;37.534;-122.308;2022-12-20T01:53:00;102441.78;;;6.39;100.00
69060;BME280;56135;37.534;-122.308;2022-12-20T01:55:28;102440.84;;;6.37;100.00
69060;BME280;56135;37.534;-122.308;2022-12-20T01:57:56;102445.25;;;6.38;100.00
69060;BME280;56135;37.534;-122.308;2022-12-20T02:00:23;102434.69;;;6.36;100.00
69060;BME280;56135;37.534;-122.308;2022-12-20T02:02:49;102429.41;;;6.34;100.00
69060;BME280;56135;37.534;-122.308;2022-12-20T02:05:16;102440.00;;;6.38;100.00
69060;BME280;56135;37.534;-122.308;2022-12-20T02:07:43;102445.16;;;6.34;100.00
69060;BME280;56135;37.534;-122.308;2022-12-20T02:10:10;102446.81;;;6.32;100.00
69060;BME280;56135;37.534;-122.308;2022-12-20T02:12:39;102454.69;;;6.32;100.00
69060;BME280;56135;37.534;-122.308;2022-12-20T02:25:56;102450.19;;;6.28;100.00
69060;BME280;56135;37.534;-122.308;2022-12-20T02:28:45;102449.28;;;6.26;100.00
69060;BME280;56135;37.534;-122.308;2022-12-20T02:31:18;102459.81;;;6.28;100.00
69060;BME280;56135;37.534;-122.308;2022-12-20T02:33:46;102466.91;;;6.30;100.00
69060;BME280;56135;37.534;-122.308;2022-12-20T02:36:14;102464.00;;;6.23;100.00
69060;BME280;56135;37.534;-122.308;2022-12-20T02:38:40;102470.00;;;6.18;100.00
69060;BME280;56135;37.534;-122.308;2022-12-20T02:41:08;102471.88;;;6.23;100.00
69060;BME280;56135;37.534;-122.308;2022-12-20T02:43:36;102478.75;;;6.19;100.00
69060;BME280;56135;37.534;-122.308;2022-12-20T02:46:22;102472.72;;;6.22;100.00
69060;BME280;56135;37.534;-122.308;2022-12-20T02:48:49;102463.97;;;6.21;100.00
69060;BME280;56135;37.534;-122.308;2022-12-20T02:51:16;102468.25;;;6.19;100.00
69060;BME280;56135;37.534;-122.308;2022-12-20T02:53:43;102472.63;;;6.18;100.00
69060;BME280;56135;37.534;-122.308;2022-12-20T02:58:57;102473.13;;;6.07;100.00
69060;BME280;56135;37.534;-122.308;2022-12-20T03:01:28;102475.84;;;6.10;100.00
69060;BME280;56135;37.534;-122.308;2022-12-20T03:03:56;102485.28;;;6.05;100.00
69060;BME280;56135;37.534;-122.308;2022-12-20T03:06:22;102490.59;;;6.06;100.00
69060;BME280;56135;37.534;-122.308;2022-12-20T03:08:48;102498.31;;;6.01;100.00
69060;BME280;56135;37.534;-122.308;2022-12-20T03:11:14;102503.97;;;5.90;100.00
69060;BME280;56135;37.534;-122.308;2022-12-20T03:13:40;102508.22;;;5.86;100.00
69060;BME280;56135;37.534;-122.308;2022-12-20T03:16:06;102500.56;;;5.92;100.00
69060;BME280;56135;37.534;-122.308;2022-12-20T03:18:32;102503.38;;;5.97;100.00
69060;BME280;56135;37.534;-122.308;2022-12-20T03:20:58;102520.69;;;5.92;100.00
69060;BME280;56135;37.534;-122.308;2022-12-20T03:23:24;102518.84;;;5.89;100.00
69060;BME280;56135;37.534;-122.308;2022-12-20T03:25:50;102515.31;;;5.89;100.00
69060;BME280;56135;37.534;-122.308;2022-12-20T03:28:16;102519.34;;;5.79;100.00
69060;BME280;56135;37.534;-122.308;2022-12-20T03:30:41;102521.88;;;5.76;100.00
69060;BME280;56135;37.534;-122.308;2022-12-20T03:33:08;102521.97;;;5.79;100.00
69060;BME280;56135;37.534;-122.308;2022-12-20T03:35:34;102527.44;;;5.85;100.00
69060;BME280;56135;37.534;-122.308;2022-12-20T03:38:00;102523.91;;;5.84;100.00
69060;BME280;56135;37.534;-122.308;2022-12-20T03:40:25;102526.59;;;5.86;100.00
69060;BME280;56135;37.534;-122.308;2022-12-20T03:42:51;102521.28;;;5.84;100.00
69060;BME280;56135;37.534;-122.308;2022-12-20T03:45:17;102516.88;;;5.83;100.00
69060;BME280;56135;37.534;-122.308;2022-12-20T03:47:43;102521.19;;;5.81;100.00
69060;BME280;56135;37.534;-122.308;2022-12-20T03:50:09;102526.47;;;5.83;100.00
69060;BME280;56135;37.534;-122.308;2022-12-20T03:52:35;102530.66;;;5.78;100.00
69060;BME280;56135;37.534;-122.308;2022-12-20T03:55:01;102536.69;;;5.75;100.00
69060;BME280;56135;37.534;-122.308;2022-12-20T03:57:27;102545.47;;;5.76;100.00
69060;BME280;56135;37.534;-122.308;2022-12-20T03:59:53;102537.59;;;5.76;100.00
69060;BME280;56135;37.534;-122.308;2022-12-20T04:02:19;102536.69;;;5.75;100.00
69060;BME280;56135;37.534;-122.308;2022-12-20T04:04:45;102540.22;;;5.76;100.00
69060;BME280;56135;37.534;-122.308;2022-12-20T04:07:11;102544.50;;;5.74;100.00
69060;BME280;56135;37.534;-122.308;2022-12-20T04:09:37;102539.16;;;5.71;100.00
69060;BME280;56135;37.534;-122.308;2022-12-20T04:12:03;102552.03;;;5.64;100.00
69060;BME280;56135;37.534;-122.308;2022-12-20T04:14:29;102553.44;;;5.55;100.00
69060;BME280;56135;37.534;-122.308;2022-12-20T04:16:55;102553.50;;;5.56;100.00
69060;BME280;56135;37.534;-122.308;2022-12-20T04:19:20;102562.19;;;5.55;100.00
69060;BME280;56135;37.534;-122.308;2022-12-20T04:21:46;102567.53;;;5.58;100.00
69060;BME280;56135;37.534;-122.308;2022-12-20T04:24:12;102565.00;;;5.60;100.00
69060;BME280;56135;37.534;-122.308;2022-12-20T04:26:38;102568.50;;;5.60;100.00
69060;BME280;56135;37.534;-122.308;2022-12-20T04:29:04;102576.31;;;5.59;100.00
69060;BME280;56135;37.534;-122.308;2022-12-20T04:31:30;102564.13;;;5.61;100.00
69060;BME280;56135;37.534;-122.308;2022-12-20T04:33:56;102556.34;;;5.62;100.00
69060;BME280;56135;37.534;-122.308;2022-12-20T04:36:21;102545.63;;;5.56;100.00
69060;BME280;56135;37.534;-122.308;2022-12-20T04:38:47;102547.44;;;5.57;100.00
69060;BME280;56135;37.534;-122.308;2022-12-20T04:41:13;102564.75;;;5.54;100.00
69060;BME280;56135;37.534;-122.308;2022-12-20T04:43:50;102574.06;;;5.45;100.00
69060;BME280;56135;37.534;-122.308;2022-12-20T04:46:17;102581.22;;;5.49;100.00
69060;BME280;56135;37.534;-122.308;2022-12-20T04:48:45;102584.97;;;5.56;100.00
69060;BME280;56135;37.534;-122.308;2022-12-20T04:51:11;102593.75;;;5.58;100.00
69060;BME280;56135;37.534;-122.308;2022-12-20T04:53:37;102599.19;;;5.63;100.00
69060;BME280;56135;37.534;-122.308;2022-12-20T04:56:27;102593.28;;;5.68;100.00
69060;BME280;56135;37.534;-122.308;2022-12-20T04:58:54;102593.50;;;5.75;100.00
69060;BME280;56135;37.534;-122.308;2022-12-20T05:01:20;102592.84;;;5.80;100.00
69060;BME280;56135;37.534;-122.308;2022-12-20T05:03:47;102592.06;;;5.83;100.00
69060;BME280;56135;37.534;-122.308;2022-12-20T05:06:13;102599.09;;;5.84;100.00
69060;BME280;56135;37.534;-122.308;2022-12-20T05:08:39;102607.78;;;5.83;100.00
69060;BME280;56135;37.534;-122.308;2022-12-20T05:11:05;102605.41;;;5.89;100.00
69060;BME280;56135;37.534;-122.308;2022-12-20T05:13:31;102616.69;;;5.87;100.00
69060;BME280;56135;37.534;-122.308;2022-12-20T05:15:57;102628.88;;;5.86;100.00
69060;BME280;56135;37.534;-122.308;2022-12-20T05:18:24;102614.25;;;5.93;100.00
69060;BME280;56135;37.534;-122.308;2022-12-20T05:20:50;102617.06;;;5.97;100.00
69060;BME280;56135;37.534;-122.308;2022-12-20T05:23:36;102620.78;;;6.03;100.00
69060;BME280;56135;37.534;-122.308;2022-12-20T05:26:20;102610.38;;;6.06;100.00
69060;BME280;56135;37.534;-122.308;2022-12-20T05:28:49;102603.47;;;6.08;100.00
69060;BME280;56135;37.534;-122.308;2022-12-20T05:31:14;102613.06;;;6.07;100.00
69060;BME280;56135;37.534;-122.308;2022-12-20T05:33:40;102622.22;;;5.94;100.00
69060;BME280;56135;37.534;-122.308;2022-12-20T05:36:06;102613.47;;;5.95;100.00
69060;BME280;56135;37.534;-122.308;2022-12-20T05:38:32;102630.31;;;6.00;100.00
69060;BME280;56135;37.534;-122.308;2022-12-20T05:40:58;102619.00;;;6.01;100.00
69060;BME280;56135;37.534;-122.308;2022-12-20T05:43:23;102626.03;;;6.03;100.00
69060;BME280;56135;37.534;-122.308;2022-12-20T05:45:50;102619.81;;;6.00;100.00
69060;BME280;56135;37.534;-122.308;2022-12-20T05:48:16;102621.44;;;5.97;100.00
69060;BME280;56135;37.534;-122.308;2022-12-20T05:50:42;102625.59;;;5.92;100.00
69060;BME280;56135;37.534;-122.308;2022-12-20T05:53:12;102623.81;;;5.91;100.00
69060;BME280;56135;37.534;-122.308;2022-12-20T05:55:48;102613.28;;;5.89;100.00
69060;BME280;56135;37.534;-122.308;2022-12-20T05:58:14;102619.41;;;5.90;100.00
69060;BME280;56135;37.534;-122.308;2022-12-20T06:00:40;102623.63;;;5.86;100.00
69060;BME280;56135;37.534;-122.308;2022-12-20T06:03:07;102607.00;;;5.85;100.00
69060;BME280;56135;37.534;-122.308;2022-12-20T06:05:37;102613.88;;;5.82;100.00
69060;BME280;56135;37.534;-122.308;2022-12-20T06:08:06;102612.88;;;5.78;100.00
69060;BME280;56135;37.534;-122.308;2022-12-20T06:10:33;102618.03;;;5.77;100.00
69060;BME280;56135;37.534;-122.308;2022-12-20T06:12:59;102611.88;;;5.75;100.00
69060;BME280;56135;37.534;-122.308;2022-12-20T06:15:26;102624.88;;;5.72;100.00
69060;BME280;56135;37.534;-122.308;2022-12-20T06:17:52;102629.78;;;5.62;100.00
69060;BME280;56135;37.534;-122.308;2022-12-20T06:20:18;102626.44;;;5.66;100.00
69060;BME280;56135;37.534;-122.308;2022-12-20T06:22:43;102639.53;;;5.66;100.00
69060;BME280;56135;37.534;-122.308;2022-12-20T06:25:09;102633.34;;;5.64;100.00
69060;BME280;56135;37.534;-122.308;2022-12-20T06:27:36;102635.13;;;5.65;100.00
69060;BME280;56135;37.534;-122.308;2022-12-20T06:30:03;102628.88;;;5.62;100.00
69060;BME280;56135;37.534;-122.308;2022-12-20T06:32:29;102635.03;;;5.62;100.00
69060;BME280;56135;37.534;-122.308;2022-12-20T06:34:55;102636.69;;;5.60;100.00
69060;BME280;56135;37.534;-122.308;2022-12-20T06:37:20;102642.66;;;5.56;100.00
69060;BME280;56135;37.534;-122.308;2022-12-20T06:39:46;102637.41;;;5.56;100.00
69060;BME280;56135;37.534;-122.308;2022-12-20T06:42:12;102643.56;;;5.58;100.00
69060;BME280;56135;37.534;-122.308;2022-12-20T06:44:38;102645.31;;;5.58;100.00
69060;BME280;56135;37.534;-122.308;2022-12-20T06:47:04;102661.09;;;5.59;100.00
69060;BME280;56135;37.534;-122.308;2022-12-20T06:49:29;102651.63;;;5.63;100.00
69060;BME280;56135;37.534;-122.308;2022-12-20T06:51:55;102659.41;;;5.60;100.00
69060;BME280;56135;37.534;-122.308;2022-12-20T06:54:21;102668.97;;;5.59;100.00
69060;BME280;56135;37.534;-122.308;2022-12-20T06:56:47;102669.78;;;5.58;100.00
69060;BME280;56135;37.534;-122.308;2022-12-20T06:59:13;102668.09;;;5.59;100.00
69060;BME280;56135;37.534;-122.308;2022-12-20T07:01:38;102666.41;;;5.61;100.00
69060;BME280;56135;37.534;-122.308;2022-12-20T07:04:04;102674.41;;;5.64;100.00
69060;BME280;56135;37.534;-122.308;2022-12-20T07:06:30;102663.91;;;5.64;100.00
69060;BME280;56135;37.534;-122.308;2022-12-20T07:08:56;102654.25;;;5.63;100.00
69060;BME280;56135;37.534;-122.308;2022-12-20T07:11:22;102654.06;;;5.58;100.00
69060;BME280;56135;37.534;-122.308;2022-12-20T07:13:48;102649.59;;;5.56;100.00
69060;BME280;56135;37.534;-122.308;2022-12-20T07:16:14;102654.78;;;5.54;100.00
69060;BME280;56135;37.534;-122.308;2022-12-20T07:18:40;102661.47;;;5.46;100.00
69060;BME280;56135;37.534;-122.308;2022-12-20T07:21:06;102669.31;;;5.46;100.00
69060;BME280;56135;37.534;-122.308;2022-12-20T07:23:32;102667.44;;;5.42;100.00
69060;BME280;56135;37.534;-122.308;2022-12-20T07:25:58;102670.66;;;5.34;100.00
69060;BME280;56135;37.534;-122.308;2022-12-20T07:28:25;102677.66;;;5.35;100.00
69060;BME280;56135;37.534;-122.308;2022-12-20T07:30:51;102678.63;;;5.38;100.00
69060;BME280;56135;37.534;-122.308;2022-12-20T07:33:17;102679.41;;;5.35;100.00
69060;BME280;56135;37.534;-122.308;2022-12-20T07:35:43;102685.50;;;5.35;100.00
69060;BME280;56135;37.534;-122.308;2022-12-20T07:38:11;102682.84;;;5.34;100.00
69060;BME280;56135;37.534;-122.308;2022-12-20T07:40:40;102682.72;;;5.31;100.00
69060;BME280;56135;37.534;-122.308;2022-12-20T07:43:07;102679.34;;;5.33;100.00
69060;BME280;56135;37.534;-122.308;2022-12-20T07:45:33;102671.47;;;5.33;100.00
69060;BME280;56135;37.534;-122.308;2022-12-20T07:47:59;102670.66;;;5.34;100.00
69060;BME280;56135;37.534;-122.308;2022-12-20T07:50:25;102668.84;;;5.33;100.00
69060;BME280;56135;37.534;-122.308;2022-12-20T07:52:51;102674.81;;;5.29;100.00
69060;BME280;56135;37.534;-122.308;2022-12-20T07:55:17;102680.88;;;5.28;100.00
69060;BME280;56135;37.534;-122.308;2022-12-20T07:57:54;102677.16;;;5.23;100.00
69060;BME280;56135;37.534;-122.308;2022-12-20T08:00:21;102679.78;;;5.23;100.00
69060;BME280;56135;37.534;-122.308;2022-12-20T08:02:54;102675.38;;;5.22;100.00
69060;BME280;56135;37.534;-122.308;2022-12-20T08:05:23;102684.16;;;5.23;100.00
69060;BME280;56135;37.534;-122.308;2022-12-20T08:07:50;102681.53;;;5.23;100.00
69060;BME280;56135;37.534;-122.308;2022-12-20T08:10:16;102673.53;;;5.20;100.00
69060;BME280;56135;37.534;-122.308;2022-12-20T08:12:44;102677.94;;;5.21;100.00
69060;BME280;56135;37.534;-122.308;2022-12-20T08:15:11;102677.88;;;5.19;100.00
69060;BME280;56135;37.534;-122.308;2022-12-20T08:17:38;102680.25;;;5.13;100.00
69060;BME280;56135;37.534;-122.308;2022-12-20T08:20:04;102684.72;;;5.15;100.00
69060;BME280;56135;37.534;-122.308;2022-12-20T08:22:31;102688.25;;;5.16;100.00
69060;BME280;56135;37.534;-122.308;2022-12-20T08:24:57;102685.47;;;5.13;100.00
69060;BME280;56135;37.534;-122.308;2022-12-20T08:27:22;102688.06;;;5.11;100.00
69060;BME280;56135;37.534;-122.308;2022-12-20T08:29:48;102702.81;;;5.09;100.00
69060;BME280;56135;37.534;-122.308;2022-12-20T08:32:14;102700.13;;;5.08;100.00
69060;BME280;56135;37.534;-122.308;2022-12-20T08:34:40;102699.94;;;5.03;100.00
69060;BME280;56135;37.534;-122.308;2022-12-20T08:37:06;102704.28;;;5.03;100.00
69060;BME280;56135;37.534;-122.308;2022-12-20T08:39:32;102703.38;;;5.02;100.00
69060;BME280;56135;37.534;-122.308;2022-12-20T08:41:58;102698.03;;;4.99;100.00
69060;BME280;56135;37.534;-122.308;2022-12-20T08:44:24;102695.25;;;4.96;100.00
69060;BME280;56135;37.534;-122.308;2022-12-20T08:46:50;102699.34;;;4.89;100.00
69060;BME280;56135;37.534;-122.308;2022-12-20T08:49:16;102703.66;;;4.87;100.00
69060;BME280;56135;37.534;-122.308;2022-12-20T08:51:42;102708.72;;;4.84;100.00
69060;BME280;56135;37.534;-122.308;2022-12-20T08:54:07;102705.06;;;4.79;100.00
69060;BME280;56135;37.534;-122.308;2022-12-20T08:56:33;102703.09;;;4.75;100.00
69060;BME280;56135;37.534;-122.308;2022-12-20T08:58:59;102706.44;;;4.71;100.00
69060;BME280;56135;37.534;-122.308;2022-12-20T09:01:25;102712.31;;;4.65;100.00
69060;BME280;56135;37.534;-122.308;2022-12-20T09:03:51;102702.72;;;4.65;100.00
69060;BME280;56135;37.534;-122.308;2022-12-20T09:06:19;102702.88;;;4.68;100.00
69060;BME280;56135;37.534;-122.308;2022-12-20T09:08:46;102699.44;;;4.70;100.00
69060;BME280;56135;37.534;-122.308;2022-12-20T09:11:16;102701.06;;;4.67;100.00
69060;BME280;56135;37.534;-122.308;2022-12-20T09:13:43;102707.00;;;4.63;100.00
69060;BME280;56135;37.534;-122.308;2022-12-20T09:16:10;102709.50;;;4.60;100.00
69060;BME280;56135;37.534;-122.308;2022-12-20T09:18:36;102707.81;;;4.62;100.00
69060;BME280;56135;37.534;-122.308;2022-12-20T09:21:02;102699.03;;;4.60;100.00
69060;BME280;56135;37.534;-122.308;2022-12-20T09:23:29;102706.03;;;4.61;100.00
69060;BME280;56135;37.534;-122.308;2022-12-20T09:25:55;102710.25;;;4.58;100.00
69060;BME280;56135;37.534;-122.308;2022-12-20T09:28:25;102708.47;;;4.57;100.00
69060;BME280;56135;37.534;-122.308;2022-12-20T09:30:51;102705.78;;;4.55;100.00
69060;BME280;56135;37.534;-122.308;2022-12-20T09:33:17;102708.47;;;4.57;100.00
69060;BME280;56135;37.534;-122.308;2022-12-20T09:35:43;102717.97;;;4.55;100.00
69060;BME280;56135;37.534;-122.308;2022-12-20T09:38:09;102714.59;;;4.57;100.00
69060;BME280;56135;37.534;-122.308;2022-12-20T09:40:35;102711.97;;;4.57;100.00
69060;BME280;56135;37.534;-122.308;2022-12-20T09:43:03;102716.25;;;4.55;100.00
69060;BME280;56135;37.534;-122.308;2022-12-20T09:45:34;102712.78;;;4.56;100.00
69060;BME280;56135;37.534;-122.308;2022-12-20T09:48:01;102712.13;;;4.60;100.00
69060;BME280;56135;37.534;-122.308;2022-12-20T09:53:06;102710.38;;;4.61;100.00
69060;BME280;56135;37.534;-122.308;2022-12-20T09:55:40;102714.59;;;4.57;100.00
69060;BME280;56135;37.534;-122.308;2022-12-20T10:00:55;102715.50;;;4.58;100.00
69060;BME280;56135;37.534;-122.308;2022-12-20T10:03:27;102707.56;;;4.56;100.00
69060;BME280;56135;37.534;-122.308;2022-12-20T10:05:54;102706.59;;;4.54;100.00
69060;BME280;56135;37.534;-122.308;2022-12-20T10:11:20;102709.94;;;4.50;100.00
69060;BME280;56135;37.534;-122.308;2022-12-20T10:16:34;102719.34;;;4.46;100.00
69060;BME280;56135;37.534;-122.308;2022-12-20T10:19:08;102721.03;;;4.44;100.00
69060;BME280;56135;37.534;-122.308;2022-12-20T10:21:41;102707.78;;;4.41;100.00
69060;BME280;56135;37.534;-122.308;2022-12-20T10:26:41;102710.22;;;4.37;100.00
69060;BME280;56135;37.534;-122.308;2022-12-20T10:29:07;102710.28;;;4.38;100.00
69060;BME280;56135;37.534;-122.308;2022-12-20T10:31:33;102709.19;;;4.33;100.00
69060;BME280;56135;37.534;-122.308;2022-12-20T10:34:00;102701.31;;;4.33;100.00
69060;BME280;56135;37.534;-122.308;2022-12-20T10:36:33;102716.81;;;4.28;100.00
69060;BME280;56135;37.534;-122.308;2022-12-20T10:39:03;102702.06;;;4.30;100.00
69060;BME280;56135;37.534;-122.308;2022-12-20T10:41:31;102695.06;;;4.29;100.00
69060;BME280;56135;37.534;-122.308;2022-12-20T10:46:51;102687.06;;;4.26;100.00
69060;BME280;56135;37.534;-122.308;2022-12-20T10:49:26;102688.72;;;4.24;100.00
69060;BME280;56135;37.534;-122.308;2022-12-20T10:51:57;102685.16;;;4.22;100.00
69060;BME280;56135;37.534;-122.308;2022-12-20T10:54:29;102693.81;;;4.21;100.00
69060;BME280;56135;37.534;-122.308;2022-12-20T10:56:56;102693.81;;;4.21;100.00
69060;BME280;56135;37.534;-122.308;2022-12-20T10:59:26;102706.22;;;4.25;100.00
69060;BME280;56135;37.534;-122.308;2022-12-20T11:01:54;102701.09;;;4.28;100.00
69060;BME280;56135;37.534;-122.308;2022-12-20T11:04:27;102701.25;;;4.31;100.00
69060;BME280;56135;37.534;-122.308;2022-12-20T11:06:53;102695.28;;;4.34;100.00
69060;BME280;56135;37.534;-122.308;2022-12-20T11:09:23;102690.16;;;4.37;100.00
69060;BME280;56135;37.534;-122.308;2022-12-20T11:14:28;102677.28;;;4.42;100.00
69060;BME280;56135;37.534;-122.308;2022-12-20T11:16:55;102670.38;;;4.44;100.00
69060;BME280;56135;37.534;-122.308;2022-12-20T11:19:45;102661.84;;;4.48;100.00
69060;BME280;56135;37.534;-122.308;2022-12-20T11:27:26;102654.25;;;4.54;100.00
69060;BME280;56135;37.534;-122.308;2022-12-20T11:32:31;102663.16;;;4.58;100.00
69060;BME280;56135;37.534;-122.308;2022-12-20T11:35:10;102658.78;;;4.58;100.00
69060;BME280;56135;37.534;-122.308;2022-12-20T11:38:03;102658.78;;;4.58;100.00
69060;BME280;56135;37.534;-122.308;2022-12-20T11:40:29;102656.16;;;4.58;100.00
69060;BME280;56135;37.534;-122.308;2022-12-20T11:43:16;102652.91;;;4.64;100.00
69060;BME280;56135;37.534;-122.308;2022-12-20T11:51:04;102655.81;;;4.70;100.00
69060;BME280;56135;37.534;-122.308;2022-12-20T11:53:38;102650.75;;;4.75;100.00
69060;BME280;56135;37.534;-122.308;2022-12-20T11:56:08;102645.38;;;4.72;100.00
69060;BME280;56135;37.534;-122.308;2022-12-20T12:01:06;102642.97;;;4.76;100.00
69060;BME280;56135;37.534;-122.308;2022-12-20T12:03:37;102639.59;;;4.79;100.00
69060;BME280;56135;37.534;-122.308;2022-12-20T12:06:06;102633.38;;;4.77;100.00
69060;BME280;56135;37.534;-122.308;2022-12-20T12:08:40;102637.75;;;4.76;100.00
69060;BME280;56135;37.534;-122.308;2022-12-20T12:11:18;102640.41;;;4.78;100.00
69060;BME280;56135;37.534;-122.308;2022-12-20T12:13:46;102649.22;;;4.80;100.00
69060;BME280;56135;37.534;-122.308;2022-12-20T12:16:23;102641.50;;;4.83;100.00
69060;BME280;56135;37.534;-122.308;2022-12-20T12:18:51;102635.50;;;4.86;100.00
69060;BME280;56135;37.534;-122.308;2022-12-20T12:21:38;102633.75;;;4.86;100.00
69060;BME280;56135;37.534;-122.308;2022-12-20T12:26:46;102648.50;;;4.84;100.00
69060;BME280;56135;37.534;-122.308;2022-12-20T12:29:15;102643.34;;;4.86;100.00
69060;BME280;56135;37.534;-122.308;2022-12-20T12:31:49;102637.34;;;4.88;100.00
69060;BME280;56135;37.534;-122.308;2022-12-20T12:45:06;102641.03;;;4.93;100.00
69060;BME280;56135;37.534;-122.308;2022-12-20T12:47:42;102642.81;;;4.94;100.00
69060;BME280;56135;37.534;-122.308;2022-12-20T12:52:52;102654.91;;;4.91;100.00
69060;BME280;56135;37.534;-122.308;2022-12-20T12:58:45;102648.31;;;5.00;100.00
69060;BME280;56135;37.534;-122.308;2022-12-20T13:00:53;102630.88;;;5.01;100.00
69060;BME280;56135;37.534;-122.308;2022-12-20T13:09:15;102614.06;;;4.96;100.00
69060;BME280;56135;37.534;-122.308;2022-12-20T13:11:38;102605.53;;;5.00;100.00
69060;BME280;56135;37.534;-122.308;2022-12-20T13:16:37;102603.91;;;5.04;100.00
69060;BME280;56135;37.534;-122.308;2022-12-20T13:19:10;102598.66;;;5.04;100.00
69060;BME280;56135;37.534;-122.308;2022-12-20T13:21:37;102591.72;;;5.04;100.00
69060;BME280;56135;37.534;-122.308;2022-12-20T13:26:51;102615.75;;;4.94;100.00
69060;BME280;56135;37.534;-122.308;2022-12-20T13:29:24;102623.50;;;4.91;100.00
69060;BME280;56135;37.534;-122.308;2022-12-20T13:31:50;102633.38;;;4.98;100.00
69060;BME280;56135;37.534;-122.308;2022-12-20T13:37:01;102635.28;;;5.02;100.00
69060;BME280;56135;37.534;-122.308;2022-12-20T13:42:05;102645.00;;;5.05;100.00
69060;BME280;56135;37.534;-122.308;2022-12-20T13:44:35;102650.34;;;5.08;100.00
69060;BME280;56135;37.534;-122.308;2022-12-20T13:47:16;102650.34;;;5.08;100.00